OAL942 LGAL-LGIR
Flight info
| Callsign | OAL942 |
|---|---|
| Flight time | 0h 59m |
| Altitude | 30000 |
| Route | LMO G33 KEA L617 MIL M749 EPALO |
| Aircraft | A321/M-SDE3FGHIRWY/LB1 |
Departure
| Time | 2026-04-26 20:12 |
|---|---|
| Airport | Alexandroupoli Democritus Airport (LGAL) |
Arrival
| Time | 2026-04-26 21:11 |
|---|---|
| Airport | Heraklion International Nikos Kazantzakis Airport (LGIR) |
| Time | Latitude | Longitude | Altitude | Speed | Heading |
|---|---|---|---|---|---|
| 2026-04-26 19:51 | 40.85575 | 25.94508 | 20 ft | 0 kts | 73° |
| 2026-04-26 20:10 | 40.85575 | 25.94509 | 20 ft | 0 kts | 73° |
| 2026-04-26 20:10 | 40.85582 | 25.94553 | 20 ft | 9 kts | 89° |
| 2026-04-26 20:10 | 40.85566 | 25.94639 | 20 ft | 10 kts | 111° |
| 2026-04-26 20:11 | 40.85535 | 25.94726 | 19 ft | 11 kts | 116° |
| 2026-04-26 20:11 | 40.85496 | 25.94817 | 19 ft | 12 kts | 121° |
| 2026-04-26 20:11 | 40.85442 | 25.94999 | 17 ft | 48 kts | 86° |
| 2026-04-26 20:12 | 40.85908 | 25.97021 | 42 ft | 173 kts | 72° |
| 2026-04-26 20:12 | 40.86259 | 25.98490 | 763 ft | 165 kts | 72° |
| 2026-04-26 20:12 | 40.86497 | 25.99947 | 1387 ft | 171 kts | 93° |
| 2026-04-26 20:12 | 40.85939 | 26.01327 | 1907 ft | 183 kts | 142° |
| 2026-04-26 20:13 | 40.84674 | 26.01788 | 2304 ft | 203 kts | 183° |
| 2026-04-26 20:13 | 40.83335 | 26.01092 | 2694 ft | 219 kts | 221° |
| 2026-04-26 20:13 | 40.82513 | 25.99323 | 3015 ft | 237 kts | 255° |
| 2026-04-26 20:13 | 40.82066 | 25.97172 | 3452 ft | 253 kts | 258° |
| 2026-04-26 20:14 | 40.81615 | 25.94875 | 3911 ft | 269 kts | 257° |
| 2026-04-26 20:14 | 40.81041 | 25.92478 | 4553 ft | 278 kts | 246° |
| 2026-04-26 20:14 | 40.79846 | 25.90471 | 5195 ft | 288 kts | 219° |
| 2026-04-26 20:14 | 40.78132 | 25.89068 | 5933 ft | 291 kts | 208° |
| 2026-04-26 20:15 | 40.76324 | 25.87857 | 6600 ft | 296 kts | 207° |
| 2026-04-26 20:15 | 40.74495 | 25.86624 | 7244 ft | 299 kts | 209° |
| 2026-04-26 20:15 | 40.72642 | 25.85318 | 7905 ft | 302 kts | 210° |
| 2026-04-26 20:15 | 40.70811 | 25.83979 | 8526 ft | 305 kts | 211° |
| 2026-04-26 20:16 | 40.68957 | 25.82596 | 9179 ft | 308 kts | 212° |
| 2026-04-26 20:16 | 40.67102 | 25.81197 | 9841 ft | 310 kts | 212° |
| 2026-04-26 20:16 | 40.65247 | 25.79792 | 10432 ft | 314 kts | 212° |
| 2026-04-26 20:16 | 40.63296 | 25.78313 | 10767 ft | 328 kts | 212° |
| 2026-04-26 20:17 | 40.61293 | 25.76794 | 11057 ft | 343 kts | 212° |
| 2026-04-26 20:17 | 40.59180 | 25.75194 | 11345 ft | 357 kts | 212° |
| 2026-04-26 20:17 | 40.56984 | 25.73535 | 11626 ft | 371 kts | 212° |
| 2026-04-26 20:17 | 40.55490 | 25.72395 | 11885 ft | 377 kts | 212° |
| 2026-04-26 20:18 | 40.52446 | 25.70042 | 12684 ft | 381 kts | 212° |
| 2026-04-26 20:18 | 40.50165 | 25.68275 | 13207 ft | 385 kts | 212° |
| 2026-04-26 20:18 | 40.47840 | 25.66474 | 13427 ft | 398 kts | 212° |
| 2026-04-26 20:18 | 40.45421 | 25.64602 | 13838 ft | 404 kts | 212° |
| 2026-04-26 20:19 | 40.43010 | 25.62742 | 14389 ft | 406 kts | 212° |
| 2026-04-26 20:19 | 40.40588 | 25.60876 | 14925 ft | 408 kts | 212° |
| 2026-04-26 20:19 | 40.38134 | 25.58986 | 15442 ft | 411 kts | 213° |
| 2026-04-26 20:19 | 40.35660 | 25.57083 | 15959 ft | 413 kts | 213° |
| 2026-04-26 20:20 | 40.33162 | 25.55163 | 16470 ft | 416 kts | 213° |
| 2026-04-26 20:20 | 40.30659 | 25.53241 | 16962 ft | 419 kts | 213° |
| 2026-04-26 20:20 | 40.28142 | 25.51310 | 17448 ft | 421 kts | 213° |
| 2026-04-26 20:20 | 40.25635 | 25.49387 | 17907 ft | 424 kts | 213° |
| 2026-04-26 20:21 | 40.23079 | 25.47428 | 18366 ft | 426 kts | 213° |
| 2026-04-26 20:21 | 40.20521 | 25.45469 | 18815 ft | 429 kts | 213° |
| 2026-04-26 20:21 | 40.17939 | 25.43494 | 19245 ft | 432 kts | 213° |
| 2026-04-26 20:21 | 40.15336 | 25.41506 | 19657 ft | 435 kts | 213° |
| 2026-04-26 20:22 | 40.12723 | 25.39509 | 20073 ft | 437 kts | 213° |
| 2026-04-26 20:22 | 40.10104 | 25.37512 | 20482 ft | 440 kts | 213° |
| 2026-04-26 20:22 | 40.07449 | 25.35488 | 20872 ft | 442 kts | 213° |
| 2026-04-26 20:22 | 40.04799 | 25.33471 | 21282 ft | 444 kts | 213° |
| 2026-04-26 20:23 | 40.02096 | 25.31415 | 21684 ft | 447 kts | 213° |
| 2026-04-26 20:23 | 39.99444 | 25.29401 | 22060 ft | 449 kts | 213° |
| 2026-04-26 20:23 | 39.96738 | 25.27361 | 22448 ft | 451 kts | 211° |
| 2026-04-26 20:23 | 39.93774 | 25.25898 | 22720 ft | 460 kts | 193° |
| 2026-04-26 20:24 | 39.90567 | 25.25518 | 23119 ft | 464 kts | 184° |
| 2026-04-26 20:24 | 39.87328 | 25.25459 | 23453 ft | 466 kts | 182° |
| 2026-04-26 20:24 | 39.84083 | 25.25428 | 23731 ft | 469 kts | 182° |
| 2026-04-26 20:24 | 39.80811 | 25.25353 | 24009 ft | 471 kts | 183° |
| 2026-04-26 20:25 | 39.77515 | 25.25229 | 24311 ft | 473 kts | 184° |
| 2026-04-26 20:25 | 39.75314 | 25.25126 | 24514 ft | 474 kts | 184° |
| 2026-04-26 20:25 | 39.70902 | 25.24889 | 24891 ft | 477 kts | 184° |
| 2026-04-26 20:25 | 39.67588 | 25.24695 | 25174 ft | 478 kts | 184° |
| 2026-04-26 20:26 | 39.64263 | 25.24494 | 25430 ft | 480 kts | 185° |
| 2026-04-26 20:26 | 39.60928 | 25.24287 | 25680 ft | 482 kts | 185° |
| 2026-04-26 20:26 | 39.57548 | 25.24077 | 25921 ft | 484 kts | 185° |
| 2026-04-26 20:26 | 39.54190 | 25.23866 | 26158 ft | 486 kts | 185° |
| 2026-04-26 20:27 | 39.50820 | 25.23654 | 26391 ft | 487 kts | 184° |
| 2026-04-26 20:27 | 39.47412 | 25.23439 | 26614 ft | 489 kts | 184° |
| 2026-04-26 20:27 | 39.44006 | 25.23225 | 26827 ft | 491 kts | 184° |
| 2026-04-26 20:27 | 39.40603 | 25.23013 | 27023 ft | 492 kts | 185° |
| 2026-04-26 20:28 | 39.37217 | 25.22801 | 27218 ft | 494 kts | 185° |
| 2026-04-26 20:28 | 39.33779 | 25.22587 | 27411 ft | 495 kts | 185° |
| 2026-04-26 20:28 | 39.30321 | 25.22371 | 27596 ft | 496 kts | 185° |
| 2026-04-26 20:28 | 39.26885 | 25.22156 | 27780 ft | 497 kts | 185° |
| 2026-04-26 20:29 | 39.23409 | 25.21939 | 27946 ft | 498 kts | 185° |
| 2026-04-26 20:29 | 39.19951 | 25.21722 | 28100 ft | 499 kts | 185° |
| 2026-04-26 20:29 | 39.16500 | 25.21506 | 28245 ft | 500 kts | 185° |
| 2026-04-26 20:29 | 39.13005 | 25.21289 | 28388 ft | 502 kts | 185° |
| 2026-04-26 20:30 | 39.09538 | 25.21074 | 28525 ft | 503 kts | 185° |
| 2026-04-26 20:30 | 39.06041 | 25.20857 | 28650 ft | 504 kts | 185° |
| 2026-04-26 20:30 | 39.02517 | 25.20638 | 28772 ft | 505 kts | 185° |
| 2026-04-26 20:30 | 38.99023 | 25.20420 | 28904 ft | 506 kts | 185° |
| 2026-04-26 20:31 | 38.95520 | 25.20203 | 29028 ft | 506 kts | 185° |
| 2026-04-26 20:31 | 38.91987 | 25.19984 | 29163 ft | 507 kts | 185° |
| 2026-04-26 20:31 | 38.88497 | 25.19768 | 29307 ft | 506 kts | 185° |
| 2026-04-26 20:31 | 38.84967 | 25.19550 | 29463 ft | 506 kts | 185° |
| 2026-04-26 20:32 | 38.81465 | 25.19335 | 29610 ft | 506 kts | 185° |
| 2026-04-26 20:32 | 38.77929 | 25.19118 | 29752 ft | 506 kts | 185° |
| 2026-04-26 20:32 | 38.74451 | 25.18904 | 29882 ft | 506 kts | 185° |
| 2026-04-26 20:32 | 38.70943 | 25.18688 | 30008 ft | 506 kts | 185° |
| 2026-04-26 20:33 | 38.67418 | 25.18471 | 30020 ft | 505 kts | 185° |
| 2026-04-26 20:33 | 38.60403 | 25.18040 | 30027 ft | 505 kts | 185° |
| 2026-04-26 20:34 | 38.53389 | 25.17610 | 30029 ft | 502 kts | 185° |
| 2026-04-26 20:34 | 38.46430 | 25.17185 | 30029 ft | 502 kts | 185° |
| 2026-04-26 20:35 | 38.39463 | 25.16760 | 30028 ft | 503 kts | 185° |
| 2026-04-26 20:35 | 38.32463 | 25.16333 | 30028 ft | 503 kts | 185° |
| 2026-04-26 20:36 | 38.25485 | 25.15909 | 30028 ft | 503 kts | 185° |
| 2026-04-26 20:36 | 38.18491 | 25.15485 | 30028 ft | 503 kts | 185° |
| 2026-04-26 20:37 | 38.11539 | 25.15064 | 30029 ft | 504 kts | 185° |
| 2026-04-26 20:37 | 38.04530 | 25.14640 | 30026 ft | 504 kts | 185° |
| 2026-04-26 20:38 | 37.97500 | 25.14216 | 30025 ft | 505 kts | 185° |
| 2026-04-26 20:38 | 37.90520 | 25.13797 | 30024 ft | 505 kts | 185° |
| 2026-04-26 20:39 | 37.83485 | 25.13372 | 30025 ft | 505 kts | 185° |
| 2026-04-26 20:39 | 37.76449 | 25.12951 | 30023 ft | 506 kts | 185° |
| 2026-04-26 20:40 | 37.69455 | 25.12532 | 30024 ft | 506 kts | 185° |
| 2026-04-26 20:40 | 37.62398 | 25.12111 | 30027 ft | 506 kts | 184° |
| 2026-04-26 20:41 | 37.55395 | 25.11693 | 30031 ft | 506 kts | 184° |
| 2026-04-26 20:41 | 37.48350 | 25.11274 | 30036 ft | 506 kts | 184° |
| 2026-04-26 20:42 | 37.41331 | 25.10856 | 30036 ft | 506 kts | 184° |
| 2026-04-26 20:42 | 37.34265 | 25.10437 | 30045 ft | 507 kts | 184° |
| 2026-04-26 20:43 | 37.27263 | 25.10024 | 29832 ft | 501 kts | 184° |
| 2026-04-26 20:43 | 37.23808 | 25.09821 | 29315 ft | 497 kts | 184° |
| 2026-04-26 20:43 | 37.20353 | 25.09617 | 28665 ft | 494 kts | 184° |
| 2026-04-26 20:43 | 37.16945 | 25.09415 | 28053 ft | 490 kts | 184° |
| 2026-04-26 20:44 | 37.13560 | 25.09216 | 27486 ft | 486 kts | 184° |
| 2026-04-26 20:44 | 37.10213 | 25.09018 | 26927 ft | 482 kts | 184° |
| 2026-04-26 20:44 | 37.06887 | 25.08823 | 26368 ft | 478 kts | 184° |
| 2026-04-26 20:44 | 37.03589 | 25.08629 | 25814 ft | 474 kts | 184° |
| 2026-04-26 20:45 | 37.00332 | 25.08438 | 25267 ft | 470 kts | 184° |
| 2026-04-26 20:45 | 36.97068 | 25.08246 | 24728 ft | 466 kts | 184° |
| 2026-04-26 20:45 | 36.93830 | 25.08056 | 24204 ft | 462 kts | 184° |
| 2026-04-26 20:45 | 36.90670 | 25.07871 | 23688 ft | 458 kts | 183° |
| 2026-04-26 20:46 | 36.87494 | 25.07684 | 23144 ft | 455 kts | 183° |
| 2026-04-26 20:46 | 36.84322 | 25.07500 | 22609 ft | 451 kts | 183° |
| 2026-04-26 20:46 | 36.81206 | 25.07318 | 22084 ft | 447 kts | 183° |
| 2026-04-26 20:46 | 36.78122 | 25.07139 | 21550 ft | 444 kts | 183° |
| 2026-04-26 20:47 | 36.75073 | 25.06961 | 21024 ft | 441 kts | 183° |
| 2026-04-26 20:47 | 36.73040 | 25.06843 | 20671 ft | 439 kts | 183° |
| 2026-04-26 20:47 | 36.69004 | 25.06608 | 19956 ft | 435 kts | 183° |
| 2026-04-26 20:47 | 36.65992 | 25.06432 | 19447 ft | 431 kts | 183° |
| 2026-04-26 20:48 | 36.62996 | 25.06259 | 18932 ft | 428 kts | 183° |
| 2026-04-26 20:48 | 36.60019 | 25.06085 | 18420 ft | 425 kts | 182° |
| 2026-04-26 20:48 | 36.57107 | 25.05917 | 17927 ft | 422 kts | 182° |
| 2026-04-26 20:48 | 36.54159 | 25.05746 | 17418 ft | 419 kts | 182° |
| 2026-04-26 20:49 | 36.51284 | 25.05579 | 16896 ft | 416 kts | 182° |
| 2026-04-26 20:49 | 36.48397 | 25.05412 | 16401 ft | 413 kts | 182° |
| 2026-04-26 20:49 | 36.45534 | 25.05247 | 15900 ft | 410 kts | 182° |
| 2026-04-26 20:49 | 36.42711 | 25.05083 | 15407 ft | 408 kts | 182° |
| 2026-04-26 20:50 | 36.39874 | 25.04919 | 14922 ft | 404 kts | 182° |
| 2026-04-26 20:50 | 36.37088 | 25.04757 | 14452 ft | 401 kts | 182° |
| 2026-04-26 20:50 | 36.34289 | 25.04596 | 13970 ft | 398 kts | 182° |
| 2026-04-26 20:50 | 36.31569 | 25.04439 | 13496 ft | 395 kts | 182° |
| 2026-04-26 20:51 | 36.28821 | 25.04283 | 12999 ft | 393 kts | 182° |
| 2026-04-26 20:51 | 36.26098 | 25.04128 | 12529 ft | 390 kts | 182° |
| 2026-04-26 20:51 | 36.23415 | 25.03975 | 12070 ft | 387 kts | 182° |
| 2026-04-26 20:51 | 36.20727 | 25.03821 | 11612 ft | 384 kts | 182° |
| 2026-04-26 20:52 | 36.18042 | 25.03667 | 11156 ft | 381 kts | 182° |
| 2026-04-26 20:52 | 36.15419 | 25.03517 | 10704 ft | 378 kts | 182° |
| 2026-04-26 20:52 | 36.12818 | 25.03368 | 10239 ft | 375 kts | 183° |
| 2026-04-26 20:52 | 36.10214 | 25.03218 | 9813 ft | 366 kts | 183° |
| 2026-04-26 20:53 | 36.07711 | 25.03074 | 9260 ft | 357 kts | 183° |
| 2026-04-26 20:53 | 36.05279 | 25.02935 | 8773 ft | 346 kts | 183° |
| 2026-04-26 20:53 | 36.02924 | 25.02801 | 8279 ft | 336 kts | 183° |
| 2026-04-26 20:53 | 36.00627 | 25.02670 | 7812 ft | 326 kts | 183° |
| 2026-04-26 20:54 | 35.98399 | 25.02544 | 7421 ft | 315 kts | 183° |
| 2026-04-26 20:54 | 35.96228 | 25.02421 | 7055 ft | 310 kts | 183° |
| 2026-04-26 20:54 | 35.94067 | 25.02297 | 6702 ft | 307 kts | 183° |
| 2026-04-26 20:54 | 35.91942 | 25.02176 | 6346 ft | 305 kts | 183° |
| 2026-04-26 20:55 | 35.89838 | 25.02055 | 6027 ft | 301 kts | 183° |
| 2026-04-26 20:55 | 35.87774 | 25.01938 | 5694 ft | 297 kts | 183° |
| 2026-04-26 20:55 | 35.85716 | 25.01821 | 5443 ft | 290 kts | 183° |
| 2026-04-26 20:55 | 35.83690 | 25.01706 | 5040 ft | 290 kts | 183° |
| 2026-04-26 20:56 | 35.81693 | 25.01593 | 4675 ft | 289 kts | 184° |
| 2026-04-26 20:56 | 35.79701 | 25.01479 | 4330 ft | 287 kts | 183° |
| 2026-04-26 20:56 | 35.77694 | 25.01365 | 3992 ft | 284 kts | 183° |
| 2026-04-26 20:56 | 35.75732 | 25.01254 | 3664 ft | 282 kts | 184° |
| 2026-04-26 20:57 | 35.73773 | 25.01142 | 3337 ft | 280 kts | 183° |
| 2026-04-26 20:57 | 35.71839 | 25.01142 | 3026 ft | 277 kts | 173° |
| 2026-04-26 20:57 | 35.70016 | 25.01663 | 2969 ft | 269 kts | 160° |
| 2026-04-26 20:57 | 35.68250 | 25.02474 | 2968 ft | 269 kts | 158° |
| 2026-04-26 20:58 | 35.66513 | 25.03326 | 2966 ft | 269 kts | 156° |
| 2026-04-26 20:58 | 35.64953 | 25.04551 | 2950 ft | 267 kts | 130° |
| 2026-04-26 20:58 | 35.64046 | 25.06498 | 2958 ft | 262 kts | 101° |
| 2026-04-26 20:58 | 35.63953 | 25.08676 | 2963 ft | 256 kts | 76° |
| 2026-04-26 20:59 | 35.64430 | 25.10768 | 2974 ft | 254 kts | 69° |
| 2026-04-26 20:59 | 35.64945 | 25.12867 | 2970 ft | 255 kts | 72° |
| 2026-04-26 20:59 | 35.65316 | 25.14984 | 2969 ft | 256 kts | 77° |
| 2026-04-26 20:59 | 35.65541 | 25.17173 | 2968 ft | 257 kts | 82° |
| 2026-04-26 21:00 | 35.65623 | 25.19346 | 2966 ft | 258 kts | 86° |
| 2026-04-26 21:00 | 35.65577 | 25.21557 | 2966 ft | 259 kts | 90° |
| 2026-04-26 21:00 | 35.65409 | 25.23787 | 2965 ft | 260 kts | 94° |
| 2026-04-26 21:00 | 35.65128 | 25.25973 | 2965 ft | 261 kts | 97° |
| 2026-04-26 21:01 | 35.64737 | 25.28159 | 2965 ft | 262 kts | 101° |
| 2026-04-26 21:01 | 35.64245 | 25.30293 | 2964 ft | 263 kts | 104° |
| 2026-04-26 21:01 | 35.63638 | 25.32433 | 2961 ft | 264 kts | 108° |
| 2026-04-26 21:01 | 35.62933 | 25.34513 | 2963 ft | 265 kts | 111° |
| 2026-04-26 21:02 | 35.62127 | 25.36549 | 2965 ft | 265 kts | 115° |
| 2026-04-26 21:02 | 35.61221 | 25.38528 | 2965 ft | 266 kts | 118° |
| 2026-04-26 21:02 | 35.60151 | 25.40391 | 2962 ft | 267 kts | 128° |
| 2026-04-26 21:02 | 35.58828 | 25.41974 | 2957 ft | 269 kts | 140° |
| 2026-04-26 21:03 | 35.57244 | 25.43239 | 2961 ft | 271 kts | 152° |
| 2026-04-26 21:03 | 35.55493 | 25.44088 | 2967 ft | 271 kts | 164° |
| 2026-04-26 21:03 | 35.53634 | 25.44494 | 2973 ft | 271 kts | 176° |
| 2026-04-26 21:03 | 35.51761 | 25.44441 | 2980 ft | 270 kts | 188° |
| 2026-04-26 21:04 | 35.49927 | 25.43935 | 2975 ft | 268 kts | 200° |
| 2026-04-26 21:04 | 35.48238 | 25.43023 | 2977 ft | 267 kts | 210° |
| 2026-04-26 21:04 | 35.46615 | 25.41913 | 2982 ft | 267 kts | 212° |
| 2026-04-26 21:04 | 35.44974 | 25.40800 | 2982 ft | 269 kts | 205° |
| 2026-04-26 21:05 | 35.43150 | 25.40447 | 2948 ft | 270 kts | 169° |
| 2026-04-26 21:05 | 35.41441 | 25.41299 | 2999 ft | 269 kts | 148° |
| 2026-04-26 21:05 | 35.39822 | 25.42488 | 3003 ft | 269 kts | 148° |
| 2026-04-26 21:05 | 35.38221 | 25.43525 | 3067 ft | 249 kts | 159° |
| 2026-04-26 21:06 | 35.36585 | 25.43559 | 2992 ft | 229 kts | 199° |
| 2026-04-26 21:06 | 35.35322 | 25.42571 | 2971 ft | 208 kts | 231° |
| 2026-04-26 21:06 | 35.34619 | 25.41164 | 2956 ft | 182 kts | 250° |
| 2026-04-26 21:06 | 35.34129 | 25.39771 | 2964 ft | 177 kts | 252° |
| 2026-04-26 21:07 | 35.33648 | 25.38379 | 3011 ft | 176 kts | 252° |
| 2026-04-26 21:07 | 35.33155 | 25.37005 | 3005 ft | 177 kts | 251° |
| 2026-04-26 21:07 | 35.32772 | 25.35574 | 2972 ft | 173 kts | 268° |
| 2026-04-26 21:07 | 35.32784 | 25.34141 | 2797 ft | 170 kts | 280° |
| 2026-04-26 21:08 | 35.32932 | 25.32713 | 2499 ft | 168 kts | 281° |
| 2026-04-26 21:08 | 35.33069 | 25.31291 | 2251 ft | 168 kts | 279° |
| 2026-04-26 21:08 | 35.33174 | 25.29866 | 1997 ft | 167 kts | 278° |
| 2026-04-26 21:08 | 35.33266 | 25.28456 | 1749 ft | 163 kts | 278° |
| 2026-04-26 21:09 | 35.33351 | 25.27130 | 1493 ft | 154 kts | 277° |
| 2026-04-26 21:09 | 35.33438 | 25.25829 | 1294 ft | 153 kts | 276° |
| 2026-04-26 21:09 | 35.33527 | 25.24531 | 1052 ft | 153 kts | 275° |
| 2026-04-26 21:09 | 35.33616 | 25.23230 | 827 ft | 153 kts | 274° |
| 2026-04-26 21:10 | 35.33704 | 25.21930 | 601 ft | 153 kts | 273° |
| 2026-04-26 21:10 | 35.33792 | 25.20645 | 372 ft | 153 kts | 272° |
| 2026-04-26 21:10 | 35.33881 | 25.19347 | 156 ft | 152 kts | 272° |
| 2026-04-26 21:10 | 35.33973 | 25.18041 | 111 ft | 153 kts | 272° |
| 2026-04-26 21:11 | 35.34047 | 25.16892 | 85 ft | 98 kts | 282° |
| 2026-04-26 21:11 | 35.34089 | 25.16412 | 79 ft | 17 kts | 272° |
| 2026-04-26 21:11 | 35.34101 | 25.16296 | 80 ft | 13 kts | 302° |
| 2026-04-26 21:11 | 35.34096 | 25.16249 | 80 ft | 6 kts | 117° |
| 2026-04-26 21:12 | 35.34089 | 25.16345 | 79 ft | 17 kts | 94° |
| 2026-04-26 21:12 | 35.34081 | 25.16493 | 79 ft | 15 kts | 93° |
| 2026-04-26 21:12 | 35.34052 | 25.16610 | 82 ft | 14 kts | 121° |
| 2026-04-26 21:12 | 35.34024 | 25.16659 | 84 ft | 0 kts | 125° |
| 2026-04-26 21:13 | 35.34011 | 25.16681 | 85 ft | 4 kts | 125° |
| 2026-04-26 21:13 | 35.33980 | 25.16739 | 87 ft | 14 kts | 118° |
| 2026-04-26 21:14 | 35.33959 | 25.16860 | 88 ft | 14 kts | 94° |
| 2026-04-26 21:14 | 35.33948 | 25.16981 | 89 ft | 15 kts | 97° |
| 2026-04-26 21:14 | 35.33937 | 25.17119 | 87 ft | 17 kts | 94° |
| 2026-04-26 21:14 | 35.33929 | 25.17246 | 90 ft | 10 kts | 94° |
| 2026-04-26 21:15 | 35.33925 | 25.17310 | 94 ft | 4 kts | 94° |
| 2026-04-26 21:15 | 35.33915 | 25.17354 | 98 ft | 6 kts | 124° |
| 2026-04-26 21:15 | 35.33876 | 25.17374 | 101 ft | 7 kts | 173° |
| 2026-04-26 21:15 | 35.33845 | 25.17325 | 102 ft | 11 kts | 276° |
| 2026-04-26 21:16 | 35.33864 | 25.17296 | 99 ft | 0 kts | 341° |